sensor_id;sensor_type;location;lat;lon;timestamp;P1;durP1;ratioP1;P2;durP2;ratioP2
2824;SDS011;1420;51.324;12.344;2023-07-02T00:01:23;7.12;;;1.40;;
2824;SDS011;1420;51.324;12.344;2023-07-02T00:03:50;5.56;;;1.44;;
2824;SDS011;1420;51.324;12.344;2023-07-02T00:06:17;6.12;;;1.60;;
2824;SDS011;1420;51.324;12.344;2023-07-02T00:08:44;5.26;;;1.52;;
2824;SDS011;1420;51.324;12.344;2023-07-02T00:11:13;4.90;;;1.32;;
2824;SDS011;1420;51.324;12.344;2023-07-02T00:13:39;4.86;;;1.32;;
2824;SDS011;1420;51.324;12.344;2023-07-02T00:16:06;5.26;;;1.58;;
2824;SDS011;1420;51.324;12.344;2023-07-02T00:18:33;5.90;;;1.54;;
2824;SDS011;1420;51.324;12.344;2023-07-02T00:21:01;4.94;;;1.22;;
2824;SDS011;1420;51.324;12.344;2023-07-02T00:23:30;5.28;;;1.20;;
2824;SDS011;1420;51.324;12.344;2023-07-02T00:25:57;5.50;;;1.46;;
2824;SDS011;1420;51.324;12.344;2023-07-02T00:28:25;5.04;;;1.32;;
2824;SDS011;1420;51.324;12.344;2023-07-02T00:30:52;4.82;;;1.38;;
2824;SDS011;1420;51.324;12.344;2023-07-02T00:33:19;5.08;;;1.50;;
2824;SDS011;1420;51.324;12.344;2023-07-02T00:35:46;4.88;;;1.48;;
2824;SDS011;1420;51.324;12.344;2023-07-02T00:38:13;5.46;;;1.40;;
2824;SDS011;1420;51.324;12.344;2023-07-02T00:40:41;5.66;;;1.36;;
2824;SDS011;1420;51.324;12.344;2023-07-02T00:43:08;6.28;;;1.42;;
2824;SDS011;1420;51.324;12.344;2023-07-02T00:45:35;4.84;;;1.24;;
2824;SDS011;1420;51.324;12.344;2023-07-02T00:48:02;4.96;;;1.50;;
2824;SDS011;1420;51.324;12.344;2023-07-02T00:50:29;4.42;;;1.00;;
2824;SDS011;1420;51.324;12.344;2023-07-02T00:52:57;5.40;;;1.32;;
2824;SDS011;1420;51.324;12.344;2023-07-02T00:55:24;5.38;;;1.54;;
2824;SDS011;1420;51.324;12.344;2023-07-02T00:57:51;4.68;;;1.42;;
2824;SDS011;1420;51.324;12.344;2023-07-02T01:00:18;4.64;;;1.10;;
2824;SDS011;1420;51.324;12.344;2023-07-02T01:02:53;6.14;;;1.34;;
2824;SDS011;1420;51.324;12.344;2023-07-02T01:05:14;5.70;;;1.20;;
2824;SDS011;1420;51.324;12.344;2023-07-02T01:07:41;5.92;;;1.30;;
2824;SDS011;1420;51.324;12.344;2023-07-02T01:10:08;7.20;;;1.88;;
2824;SDS011;1420;51.324;12.344;2023-07-02T01:12:35;4.86;;;1.28;;
2824;SDS011;1420;51.324;12.344;2023-07-02T01:15:03;5.00;;;1.94;;
2824;SDS011;1420;51.324;12.344;2023-07-02T01:17:31;5.22;;;1.40;;
2824;SDS011;1420;51.324;12.344;2023-07-02T01:19:57;4.90;;;1.58;;
2824;SDS011;1420;51.324;12.344;2023-07-02T01:22:25;5.50;;;1.58;;
2824;SDS011;1420;51.324;12.344;2023-07-02T01:24:52;6.56;;;1.72;;
2824;SDS011;1420;51.324;12.344;2023-07-02T01:27:19;5.22;;;1.70;;
2824;SDS011;1420;51.324;12.344;2023-07-02T01:29:46;5.42;;;1.40;;
2824;SDS011;1420;51.324;12.344;2023-07-02T01:32:14;5.36;;;1.36;;
2824;SDS011;1420;51.324;12.344;2023-07-02T01:34:41;4.82;;;1.32;;
2824;SDS011;1420;51.324;12.344;2023-07-02T01:37:08;8.76;;;1.70;;
2824;SDS011;1420;51.324;12.344;2023-07-02T01:39:35;5.60;;;1.20;;
2824;SDS011;1420;51.324;12.344;2023-07-02T01:42:07;4.92;;;1.16;;
2824;SDS011;1420;51.324;12.344;2023-07-02T01:44:34;5.90;;;1.50;;
2824;SDS011;1420;51.324;12.344;2023-07-02T01:47:01;5.88;;;1.90;;
2824;SDS011;1420;51.324;12.344;2023-07-02T01:49:28;5.58;;;1.90;;
2824;SDS011;1420;51.324;12.344;2023-07-02T01:51:56;6.38;;;1.54;;
2824;SDS011;1420;51.324;12.344;2023-07-02T01:54:24;5.60;;;1.48;;
2824;SDS011;1420;51.324;12.344;2023-07-02T01:56:50;5.10;;;1.52;;
2824;SDS011;1420;51.324;12.344;2023-07-02T01:59:17;5.12;;;1.74;;
2824;SDS011;1420;51.324;12.344;2023-07-02T02:01:44;5.10;;;1.52;;
2824;SDS011;1420;51.324;12.344;2023-07-02T02:04:12;5.54;;;1.90;;
2824;SDS011;1420;51.324;12.344;2023-07-02T02:06:39;5.80;;;1.30;;
2824;SDS011;1420;51.324;12.344;2023-07-02T02:09:06;5.16;;;1.70;;
2824;SDS011;1420;51.324;12.344;2023-07-02T02:11:34;5.46;;;1.40;;
2824;SDS011;1420;51.324;12.344;2023-07-02T02:14:00;5.90;;;1.64;;
2824;SDS011;1420;51.324;12.344;2023-07-02T02:16:28;5.54;;;1.74;;
2824;SDS011;1420;51.324;12.344;2023-07-02T02:18:55;7.02;;;1.96;;
2824;SDS011;1420;51.324;12.344;2023-07-02T02:21:23;5.68;;;2.06;;
2824;SDS011;1420;51.324;12.344;2023-07-02T02:23:50;6.22;;;2.68;;
2824;SDS011;1420;51.324;12.344;2023-07-02T02:26:17;5.66;;;1.92;;
2824;SDS011;1420;51.324;12.344;2023-07-02T02:28:44;5.14;;;1.72;;
2824;SDS011;1420;51.324;12.344;2023-07-02T02:31:12;5.20;;;1.90;;
2824;SDS011;1420;51.324;12.344;2023-07-02T02:33:39;6.14;;;2.02;;
2824;SDS011;1420;51.324;12.344;2023-07-02T02:36:06;5.06;;;2.20;;
2824;SDS011;1420;51.324;12.344;2023-07-02T02:38:33;4.94;;;1.82;;
2824;SDS011;1420;51.324;12.344;2023-07-02T02:41:00;4.58;;;1.48;;
2824;SDS011;1420;51.324;12.344;2023-07-02T02:43:28;6.90;;;2.34;;
2824;SDS011;1420;51.324;12.344;2023-07-02T02:45:55;5.40;;;2.42;;
2824;SDS011;1420;51.324;12.344;2023-07-02T02:48:22;5.90;;;2.08;;
2824;SDS011;1420;51.324;12.344;2023-07-02T02:50:49;6.50;;;2.04;;
2824;SDS011;1420;51.324;12.344;2023-07-02T02:53:17;5.78;;;2.06;;
2824;SDS011;1420;51.324;12.344;2023-07-02T02:55:44;8.14;;;2.18;;
2824;SDS011;1420;51.324;12.344;2023-07-02T02:58:11;5.20;;;2.30;;
2824;SDS011;1420;51.324;12.344;2023-07-02T03:00:38;7.46;;;2.88;;
2824;SDS011;1420;51.324;12.344;2023-07-02T03:03:05;5.12;;;2.20;;
2824;SDS011;1420;51.324;12.344;2023-07-02T03:05:33;5.52;;;2.18;;
2824;SDS011;1420;51.324;12.344;2023-07-02T03:08:00;5.28;;;2.38;;
2824;SDS011;1420;51.324;12.344;2023-07-02T03:10:27;5.68;;;2.58;;
2824;SDS011;1420;51.324;12.344;2023-07-02T03:12:54;4.58;;;2.06;;
2824;SDS011;1420;51.324;12.344;2023-07-02T03:15:21;5.08;;;2.32;;
2824;SDS011;1420;51.324;12.344;2023-07-02T03:17:49;7.44;;;2.42;;
2824;SDS011;1420;51.324;12.344;2023-07-02T03:20:16;5.10;;;2.98;;
2824;SDS011;1420;51.324;12.344;2023-07-02T03:22:43;5.72;;;2.52;;
2824;SDS011;1420;51.324;12.344;2023-07-02T03:25:10;6.14;;;2.22;;
2824;SDS011;1420;51.324;12.344;2023-07-02T03:27:37;4.60;;;1.82;;
2824;SDS011;1420;51.324;12.344;2023-07-02T03:30:05;5.32;;;3.04;;
2824;SDS011;1420;51.324;12.344;2023-07-02T03:32:33;5.60;;;2.74;;
2824;SDS011;1420;51.324;12.344;2023-07-02T03:35:00;5.40;;;2.36;;
2824;SDS011;1420;51.324;12.344;2023-07-02T03:37:27;7.56;;;2.10;;
2824;SDS011;1420;51.324;12.344;2023-07-02T03:39:54;6.90;;;2.78;;
2824;SDS011;1420;51.324;12.344;2023-07-02T03:42:21;6.36;;;2.78;;
2824;SDS011;1420;51.324;12.344;2023-07-02T03:44:49;7.40;;;2.48;;
2824;SDS011;1420;51.324;12.344;2023-07-02T03:47:16;7.58;;;2.14;;
2824;SDS011;1420;51.324;12.344;2023-07-02T03:49:43;7.42;;;2.88;;
2824;SDS011;1420;51.324;12.344;2023-07-02T03:52:10;6.22;;;3.10;;
2824;SDS011;1420;51.324;12.344;2023-07-02T03:54:37;6.32;;;2.30;;
2824;SDS011;1420;51.324;12.344;2023-07-02T03:57:05;5.98;;;2.46;;
2824;SDS011;1420;51.324;12.344;2023-07-02T03:59:32;6.54;;;2.36;;
2824;SDS011;1420;51.324;12.344;2023-07-02T04:01:59;7.64;;;2.30;;
2824;SDS011;1420;51.324;12.344;2023-07-02T04:04:26;8.08;;;2.46;;
2824;SDS011;1420;51.324;12.344;2023-07-02T04:06:54;6.82;;;2.48;;
2824;SDS011;1420;51.324;12.344;2023-07-02T04:09:21;7.44;;;2.10;;
2824;SDS011;1420;51.324;12.344;2023-07-02T04:11:48;7.56;;;2.24;;
2824;SDS011;1420;51.324;12.344;2023-07-02T04:14:15;8.40;;;2.44;;
2824;SDS011;1420;51.324;12.344;2023-07-02T04:16:43;6.80;;;2.26;;
2824;SDS011;1420;51.324;12.344;2023-07-02T04:19:10;6.84;;;2.30;;
2824;SDS011;1420;51.324;12.344;2023-07-02T04:21:37;6.34;;;2.00;;
2824;SDS011;1420;51.324;12.344;2023-07-02T04:24:04;6.84;;;1.88;;
2824;SDS011;1420;51.324;12.344;2023-07-02T04:26:31;7.36;;;2.02;;
2824;SDS011;1420;51.324;12.344;2023-07-02T04:28:59;7.28;;;1.90;;
2824;SDS011;1420;51.324;12.344;2023-07-02T04:31:26;7.98;;;2.34;;
2824;SDS011;1420;51.324;12.344;2023-07-02T04:33:53;7.90;;;2.30;;
2824;SDS011;1420;51.324;12.344;2023-07-02T04:36:20;6.02;;;2.00;;
2824;SDS011;1420;51.324;12.344;2023-07-02T04:38:47;7.92;;;2.32;;
2824;SDS011;1420;51.324;12.344;2023-07-02T04:41:16;7.80;;;2.62;;
2824;SDS011;1420;51.324;12.344;2023-07-02T04:43:42;8.56;;;2.60;;
2824;SDS011;1420;51.324;12.344;2023-07-02T04:46:09;7.02;;;2.30;;
2824;SDS011;1420;51.324;12.344;2023-07-02T04:48:36;7.64;;;2.44;;
2824;SDS011;1420;51.324;12.344;2023-07-02T04:51:03;9.10;;;2.74;;
2824;SDS011;1420;51.324;12.344;2023-07-02T04:53:31;8.02;;;3.10;;
2824;SDS011;1420;51.324;12.344;2023-07-02T04:55:58;10.04;;;2.76;;
2824;SDS011;1420;51.324;12.344;2023-07-02T04:58:26;7.64;;;2.82;;
2824;SDS011;1420;51.324;12.344;2023-07-02T05:00:52;8.76;;;3.22;;
2824;SDS011;1420;51.324;12.344;2023-07-02T05:03:20;7.98;;;2.58;;
2824;SDS011;1420;51.324;12.344;2023-07-02T05:05:47;8.64;;;3.12;;
2824;SDS011;1420;51.324;12.344;2023-07-02T05:08:15;8.46;;;3.16;;
2824;SDS011;1420;51.324;12.344;2023-07-02T05:10:42;7.00;;;2.88;;
2824;SDS011;1420;51.324;12.344;2023-07-02T05:13:09;9.68;;;3.90;;
2824;SDS011;1420;51.324;12.344;2023-07-02T05:15:36;9.54;;;3.30;;
2824;SDS011;1420;51.324;12.344;2023-07-02T05:18:03;8.36;;;3.50;;
2824;SDS011;1420;51.324;12.344;2023-07-02T05:20:31;7.76;;;2.70;;
2824;SDS011;1420;51.324;12.344;2023-07-02T05:22:58;10.14;;;3.22;;
2824;SDS011;1420;51.324;12.344;2023-07-02T05:25:25;8.86;;;3.20;;
2824;SDS011;1420;51.324;12.344;2023-07-02T05:27:52;8.32;;;3.28;;
2824;SDS011;1420;51.324;12.344;2023-07-02T05:30:19;9.72;;;3.28;;
2824;SDS011;1420;51.324;12.344;2023-07-02T05:32:47;10.94;;;3.58;;
2824;SDS011;1420;51.324;12.344;2023-07-02T05:35:14;9.48;;;3.60;;
2824;SDS011;1420;51.324;12.344;2023-07-02T05:37:41;9.28;;;3.50;;
2824;SDS011;1420;51.324;12.344;2023-07-02T05:40:08;11.04;;;3.80;;
2824;SDS011;1420;51.324;12.344;2023-07-02T05:42:36;9.94;;;3.70;;
2824;SDS011;1420;51.324;12.344;2023-07-02T05:45:03;11.46;;;4.00;;
2824;SDS011;1420;51.324;12.344;2023-07-02T05:47:30;10.48;;;4.12;;
2824;SDS011;1420;51.324;12.344;2023-07-02T05:49:58;11.00;;;4.42;;
2824;SDS011;1420;51.324;12.344;2023-07-02T05:52:25;10.48;;;4.10;;
2824;SDS011;1420;51.324;12.344;2023-07-02T05:54:52;10.92;;;4.04;;
2824;SDS011;1420;51.324;12.344;2023-07-02T05:57:19;14.20;;;4.20;;
2824;SDS011;1420;51.324;12.344;2023-07-02T05:59:46;11.40;;;4.18;;
2824;SDS011;1420;51.324;12.344;2023-07-02T06:02:14;10.90;;;4.62;;
2824;SDS011;1420;51.324;12.344;2023-07-02T06:04:41;11.78;;;5.02;;
2824;SDS011;1420;51.324;12.344;2023-07-02T06:07:08;12.18;;;4.90;;
2824;SDS011;1420;51.324;12.344;2023-07-02T06:09:35;12.48;;;4.98;;
2824;SDS011;1420;51.324;12.344;2023-07-02T06:12:02;11.30;;;4.48;;
2824;SDS011;1420;51.324;12.344;2023-07-02T06:14:30;11.34;;;4.18;;
2824;SDS011;1420;51.324;12.344;2023-07-02T06:16:57;12.74;;;4.18;;
2824;SDS011;1420;51.324;12.344;2023-07-02T06:19:24;12.72;;;3.74;;
2824;SDS011;1420;51.324;12.344;2023-07-02T06:21:51;13.58;;;4.42;;
2824;SDS011;1420;51.324;12.344;2023-07-02T06:24:19;15.78;;;8.08;;
2824;SDS011;1420;51.324;12.344;2023-07-02T06:26:46;17.42;;;9.28;;
2824;SDS011;1420;51.324;12.344;2023-07-02T06:29:13;17.04;;;9.30;;
2824;SDS011;1420;51.324;12.344;2023-07-02T06:31:40;19.30;;;11.60;;
2824;SDS011;1420;51.324;12.344;2023-07-02T06:34:07;17.90;;;9.10;;
2824;SDS011;1420;51.324;12.344;2023-07-02T06:36:35;19.24;;;10.38;;
2824;SDS011;1420;51.324;12.344;2023-07-02T06:39:02;20.72;;;15.30;;
2824;SDS011;1420;51.324;12.344;2023-07-02T06:41:29;23.50;;;20.98;;
2824;SDS011;1420;51.324;12.344;2023-07-02T06:43:56;22.16;;;18.60;;
2824;SDS011;1420;51.324;12.344;2023-07-02T06:46:24;23.34;;;20.84;;
2824;SDS011;1420;51.324;12.344;2023-07-02T06:48:51;28.16;;;25.46;;
2824;SDS011;1420;51.324;12.344;2023-07-02T06:51:18;27.18;;;24.64;;
2824;SDS011;1420;51.324;12.344;2023-07-02T06:53:45;23.86;;;17.60;;
2824;SDS011;1420;51.324;12.344;2023-07-02T06:56:13;20.92;;;10.60;;
2824;SDS011;1420;51.324;12.344;2023-07-02T06:58:42;17.90;;;10.14;;
2824;SDS011;1420;51.324;12.344;2023-07-02T07:01:08;19.52;;;13.62;;
2824;SDS011;1420;51.324;12.344;2023-07-02T07:03:36;21.12;;;18.90;;
2824;SDS011;1420;51.324;12.344;2023-07-02T07:06:03;26.48;;;24.04;;
2824;SDS011;1420;51.324;12.344;2023-07-02T07:08:30;30.42;;;27.76;;
2824;SDS011;1420;51.324;12.344;2023-07-02T07:10:57;35.40;;;32.46;;
2824;SDS011;1420;51.324;12.344;2023-07-02T07:13:24;42.40;;;38.90;;
2824;SDS011;1420;51.324;12.344;2023-07-02T07:15:52;144.46;;;136.94;;
2824;SDS011;1420;51.324;12.344;2023-07-02T07:18:19;87.16;;;81.94;;
2824;SDS011;1420;51.324;12.344;2023-07-02T07:20:47;46.50;;;43.02;;
2824;SDS011;1420;51.324;12.344;2023-07-02T07:23:15;34.48;;;31.52;;
2824;SDS011;1420;51.324;12.344;2023-07-02T07:25:41;45.84;;;42.08;;
2824;SDS011;1420;51.324;12.344;2023-07-02T07:28:09;43.88;;;40.46;;
2824;SDS011;1420;51.324;12.344;2023-07-02T07:30:36;101.22;;;95.70;;
2824;SDS011;1420;51.324;12.344;2023-07-02T07:33:03;132.54;;;126.00;;
2824;SDS011;1420;51.324;12.344;2023-07-02T07:35:31;114.24;;;108.24;;
2824;SDS011;1420;51.324;12.344;2023-07-02T07:37:58;121.96;;;115.72;;
2824;SDS011;1420;51.324;12.344;2023-07-02T07:40:25;99.36;;;93.82;;
2824;SDS011;1420;51.324;12.344;2023-07-02T07:42:52;96.96;;;91.42;;
2824;SDS011;1420;51.324;12.344;2023-07-02T07:45:20;74.00;;;69.64;;
2824;SDS011;1420;51.324;12.344;2023-07-02T07:47:47;60.86;;;56.56;;
2824;SDS011;1420;51.324;12.344;2023-07-02T07:50:14;55.54;;;51.74;;
2824;SDS011;1420;51.324;12.344;2023-07-02T07:52:42;56.80;;;52.72;;
2824;SDS011;1420;51.324;12.344;2023-07-02T07:55:08;60.74;;;56.54;;
2824;SDS011;1420;51.324;12.344;2023-07-02T07:57:36;49.82;;;45.92;;
2824;SDS011;1420;51.324;12.344;2023-07-02T08:00:04;55.36;;;51.08;;
2824;SDS011;1420;51.324;12.344;2023-07-02T08:02:34;74.64;;;70.02;;
2824;SDS011;1420;51.324;12.344;2023-07-02T08:05:02;82.68;;;77.18;;
2824;SDS011;1420;51.324;12.344;2023-07-02T08:07:29;95.84;;;90.00;;
2824;SDS011;1420;51.324;12.344;2023-07-02T08:09:56;115.94;;;109.34;;
2824;SDS011;1420;51.324;12.344;2023-07-02T08:12:23;119.72;;;113.14;;
2824;SDS011;1420;51.324;12.344;2023-07-02T08:14:50;115.56;;;109.30;;
2824;SDS011;1420;51.324;12.344;2023-07-02T08:17:17;80.46;;;75.18;;
2824;SDS011;1420;51.324;12.344;2023-07-02T08:19:44;118.84;;;112.02;;
2824;SDS011;1420;51.324;12.344;2023-07-02T08:22:12;99.88;;;94.12;;
2824;SDS011;1420;51.324;12.344;2023-07-02T08:24:39;85.00;;;79.92;;
2824;SDS011;1420;51.324;12.344;2023-07-02T08:27:06;63.70;;;59.18;;
2824;SDS011;1420;51.324;12.344;2023-07-02T08:29:33;62.76;;;58.36;;
2824;SDS011;1420;51.324;12.344;2023-07-02T08:32:00;67.48;;;63.12;;
2824;SDS011;1420;51.324;12.344;2023-07-02T08:34:28;83.06;;;78.02;;
2824;SDS011;1420;51.324;12.344;2023-07-02T08:36:55;88.42;;;83.10;;
2824;SDS011;1420;51.324;12.344;2023-07-02T08:39:22;80.56;;;75.06;;
2824;SDS011;1420;51.324;12.344;2023-07-02T08:41:49;56.64;;;52.44;;
2824;SDS011;1420;51.324;12.344;2023-07-02T08:44:19;51.50;;;47.52;;
2824;SDS011;1420;51.324;12.344;2023-07-02T08:46:44;48.96;;;45.04;;
2824;SDS011;1420;51.324;12.344;2023-07-02T08:49:11;84.96;;;79.74;;
2824;SDS011;1420;51.324;12.344;2023-07-02T08:51:38;58.86;;;54.66;;
2824;SDS011;1420;51.324;12.344;2023-07-02T08:54:05;46.60;;;42.68;;
2824;SDS011;1420;51.324;12.344;2023-07-02T08:56:33;59.00;;;54.60;;
2824;SDS011;1420;51.324;12.344;2023-07-02T08:59:00;60.80;;;56.34;;
2824;SDS011;1420;51.324;12.344;2023-07-02T09:01:27;79.02;;;74.04;;
2824;SDS011;1420;51.324;12.344;2023-07-02T09:03:58;86.42;;;80.92;;
2824;SDS011;1420;51.324;12.344;2023-07-02T09:06:21;73.92;;;69.26;;
2824;SDS011;1420;51.324;12.344;2023-07-02T09:08:49;65.42;;;61.12;;
2824;SDS011;1420;51.324;12.344;2023-07-02T09:11:16;69.60;;;65.14;;
2824;SDS011;1420;51.324;12.344;2023-07-02T09:13:45;67.68;;;63.02;;
2824;SDS011;1420;51.324;12.344;2023-07-02T09:19:06;56.18;;;52.18;;
2824;SDS011;1420;51.324;12.344;2023-07-02T09:24:12;36.10;;;32.92;;
2824;SDS011;1420;51.324;12.344;2023-07-02T09:26:46;31.92;;;28.92;;
2824;SDS011;1420;51.324;12.344;2023-07-02T09:29:13;24.18;;;18.50;;
2824;SDS011;1420;51.324;12.344;2023-07-02T09:31:43;18.30;;;11.68;;
2824;SDS011;1420;51.324;12.344;2023-07-02T09:34:09;18.52;;;13.80;;
2824;SDS011;1420;51.324;12.344;2023-07-02T09:36:36;20.12;;;16.88;;
2824;SDS011;1420;51.324;12.344;2023-07-02T09:39:04;20.48;;;17.72;;
2824;SDS011;1420;51.324;12.344;2023-07-02T09:41:31;19.06;;;11.86;;
2824;SDS011;1420;51.324;12.344;2023-07-02T09:43:58;25.24;;;22.12;;
2824;SDS011;1420;51.324;12.344;2023-07-02T09:46:25;62.56;;;58.48;;
2824;SDS011;1420;51.324;12.344;2023-07-02T09:48:52;83.08;;;77.88;;
2824;SDS011;1420;51.324;12.344;2023-07-02T09:51:20;97.66;;;92.06;;
2824;SDS011;1420;51.324;12.344;2023-07-02T09:53:47;83.38;;;78.20;;
2824;SDS011;1420;51.324;12.344;2023-07-02T09:56:14;100.22;;;94.40;;
2824;SDS011;1420;51.324;12.344;2023-07-02T09:58:43;77.42;;;72.42;;
2824;SDS011;1420;51.324;12.344;2023-07-02T10:01:08;86.20;;;80.72;;
2824;SDS011;1420;51.324;12.344;2023-07-02T10:03:36;75.20;;;69.96;;
2824;SDS011;1420;51.324;12.344;2023-07-02T10:06:03;64.36;;;59.60;;
2824;SDS011;1420;51.324;12.344;2023-07-02T10:08:31;50.64;;;46.44;;
2824;SDS011;1420;51.324;12.344;2023-07-02T10:11:15;43.42;;;39.58;;
2824;SDS011;1420;51.324;12.344;2023-07-02T10:13:42;68.80;;;63.60;;
2824;SDS011;1420;51.324;12.344;2023-07-02T10:16:09;82.42;;;76.76;;
2824;SDS011;1420;51.324;12.344;2023-07-02T10:18:36;64.12;;;59.08;;
2824;SDS011;1420;51.324;12.344;2023-07-02T10:23:41;38.22;;;34.46;;
2824;SDS011;1420;51.324;12.344;2023-07-02T10:26:13;35.98;;;32.60;;
2824;SDS011;1420;51.324;12.344;2023-07-02T10:28:37;42.98;;;39.52;;
2824;SDS011;1420;51.324;12.344;2023-07-02T10:31:05;44.06;;;40.56;;
2824;SDS011;1420;51.324;12.344;2023-07-02T10:33:32;49.92;;;46.00;;
2824;SDS011;1420;51.324;12.344;2023-07-02T10:35:59;50.96;;;47.12;;
2824;SDS011;1420;51.324;12.344;2023-07-02T10:38:26;57.80;;;53.76;;
2824;SDS011;1420;51.324;12.344;2023-07-02T10:40:54;56.70;;;52.62;;
2824;SDS011;1420;51.324;12.344;2023-07-02T10:43:24;61.80;;;57.48;;
2824;SDS011;1420;51.324;12.344;2023-07-02T10:45:51;56.92;;;52.96;;
2824;SDS011;1420;51.324;12.344;2023-07-02T10:48:18;86.00;;;80.76;;
2824;SDS011;1420;51.324;12.344;2023-07-02T10:50:45;120.38;;;113.28;;
2824;SDS011;1420;51.324;12.344;2023-07-02T10:53:15;100.30;;;93.50;;
2824;SDS011;1420;51.324;12.344;2023-07-02T10:55:43;68.14;;;63.20;;
2824;SDS011;1420;51.324;12.344;2023-07-02T10:58:10;69.62;;;64.24;;
2824;SDS011;1420;51.324;12.344;2023-07-02T11:00:49;127.24;;;118.98;;
2824;SDS011;1420;51.324;12.344;2023-07-02T11:03:20;52.50;;;47.86;;
2824;SDS011;1420;51.324;12.344;2023-07-02T11:05:47;60.18;;;55.48;;
2824;SDS011;1420;51.324;12.344;2023-07-02T11:08:14;132.22;;;123.14;;
2824;SDS011;1420;51.324;12.344;2023-07-02T11:10:41;192.92;;;181.90;;
2824;SDS011;1420;51.324;12.344;2023-07-02T11:13:17;125.88;;;118.50;;
2824;SDS011;1420;51.324;12.344;2023-07-02T11:15:45;130.18;;;121.04;;
2824;SDS011;1420;51.324;12.344;2023-07-02T11:18:14;75.48;;;70.28;;
2824;SDS011;1420;51.324;12.344;2023-07-02T11:20:42;132.64;;;123.72;;
2824;SDS011;1420;51.324;12.344;2023-07-02T11:28:25;89.08;;;80.10;;
2824;SDS011;1420;51.324;12.344;2023-07-02T11:30:52;56.18;;;51.58;;
2824;SDS011;1420;51.324;12.344;2023-07-02T11:33:20;77.34;;;71.74;;
2824;SDS011;1420;51.324;12.344;2023-07-02T11:35:47;102.78;;;96.12;;
2824;SDS011;1420;51.324;12.344;2023-07-02T11:38:14;66.26;;;61.24;;
2824;SDS011;1420;51.324;12.344;2023-07-02T11:40:41;73.58;;;68.54;;
2824;SDS011;1420;51.324;12.344;2023-07-02T11:43:09;138.24;;;129.66;;
2824;SDS011;1420;51.324;12.344;2023-07-02T11:45:38;74.48;;;69.22;;
2824;SDS011;1420;51.324;12.344;2023-07-02T11:48:18;92.00;;;85.84;;
2824;SDS011;1420;51.324;12.344;2023-07-02T11:50:54;70.22;;;65.40;;
2824;SDS011;1420;51.324;12.344;2023-07-02T11:53:28;82.86;;;77.46;;
2824;SDS011;1420;51.324;12.344;2023-07-02T11:55:56;107.42;;;100.62;;
2824;SDS011;1420;51.324;12.344;2023-07-02T11:58:23;87.58;;;81.78;;
2824;SDS011;1420;51.324;12.344;2023-07-02T12:00:50;119.12;;;111.12;;
2824;SDS011;1420;51.324;12.344;2023-07-02T12:03:18;73.90;;;68.78;;
2824;SDS011;1420;51.324;12.344;2023-07-02T12:05:45;78.82;;;73.40;;
2824;SDS011;1420;51.324;12.344;2023-07-02T12:08:12;95.78;;;89.68;;
2824;SDS011;1420;51.324;12.344;2023-07-02T12:10:40;176.08;;;166.06;;
2824;SDS011;1420;51.324;12.344;2023-07-02T12:13:08;120.82;;;113.78;;
2824;SDS011;1420;51.324;12.344;2023-07-02T12:15:35;118.46;;;111.70;;
2824;SDS011;1420;51.324;12.344;2023-07-02T12:18:02;85.30;;;79.36;;
2824;SDS011;1420;51.324;12.344;2023-07-02T12:20:29;180.88;;;169.78;;
2824;SDS011;1420;51.324;12.344;2023-07-02T12:22:57;203.34;;;190.98;;
2824;SDS011;1420;51.324;12.344;2023-07-02T12:25:24;155.48;;;146.10;;
2824;SDS011;1420;51.324;12.344;2023-07-02T12:27:51;159.88;;;151.12;;
2824;SDS011;1420;51.324;12.344;2023-07-02T12:30:18;138.62;;;130.74;;
2824;SDS011;1420;51.324;12.344;2023-07-02T12:32:45;111.90;;;105.48;;
2824;SDS011;1420;51.324;12.344;2023-07-02T12:35:13;128.14;;;120.84;;
2824;SDS011;1420;51.324;12.344;2023-07-02T12:37:42;113.82;;;106.88;;
2824;SDS011;1420;51.324;12.344;2023-07-02T12:40:09;123.14;;;115.74;;
2824;SDS011;1420;51.324;12.344;2023-07-02T12:42:37;93.04;;;87.02;;
2824;SDS011;1420;51.324;12.344;2023-07-02T12:45:05;145.02;;;136.90;;
2824;SDS011;1420;51.324;12.344;2023-07-02T12:47:32;145.86;;;137.68;;
2824;SDS011;1420;51.324;12.344;2023-07-02T12:49:59;180.50;;;168.56;;
2824;SDS011;1420;51.324;12.344;2023-07-02T12:52:27;157.02;;;148.42;;
2824;SDS011;1420;51.324;12.344;2023-07-02T12:54:54;146.28;;;138.00;;
2824;SDS011;1420;51.324;12.344;2023-07-02T12:57:21;161.16;;;152.54;;
2824;SDS011;1420;51.324;12.344;2023-07-02T12:59:48;176.96;;;167.62;;
2824;SDS011;1420;51.324;12.344;2023-07-02T13:02:15;151.94;;;143.26;;
2824;SDS011;1420;51.324;12.344;2023-07-02T13:04:42;152.88;;;144.66;;
2824;SDS011;1420;51.324;12.344;2023-07-02T13:07:10;161.24;;;152.54;;
2824;SDS011;1420;51.324;12.344;2023-07-02T13:09:37;159.94;;;151.40;;
2824;SDS011;1420;51.324;12.344;2023-07-02T13:12:04;159.32;;;150.86;;
2824;SDS011;1420;51.324;12.344;2023-07-02T13:14:33;155.96;;;147.26;;
2824;SDS011;1420;51.324;12.344;2023-07-02T13:16:59;150.64;;;142.16;;
2824;SDS011;1420;51.324;12.344;2023-07-02T13:19:26;166.36;;;157.16;;
2824;SDS011;1420;51.324;12.344;2023-07-02T13:21:53;161.82;;;152.94;;
2824;SDS011;1420;51.324;12.344;2023-07-02T13:24:21;142.24;;;134.26;;
2824;SDS011;1420;51.324;12.344;2023-07-02T13:26:48;155.98;;;146.70;;
2824;SDS011;1420;51.324;12.344;2023-07-02T13:29:15;134.18;;;126.62;;
2824;SDS011;1420;51.324;12.344;2023-07-02T13:31:42;156.30;;;146.82;;
2824;SDS011;1420;51.324;12.344;2023-07-02T13:34:09;165.52;;;156.30;;
2824;SDS011;1420;51.324;12.344;2023-07-02T13:36:37;180.78;;;170.96;;
2824;SDS011;1420;51.324;12.344;2023-07-02T13:39:04;151.96;;;143.64;;
2824;SDS011;1420;51.324;12.344;2023-07-02T13:41:33;155.58;;;146.84;;
2824;SDS011;1420;51.324;12.344;2023-07-02T13:44:00;152.74;;;144.40;;
2824;SDS011;1420;51.324;12.344;2023-07-02T13:46:27;149.32;;;141.30;;
2824;SDS011;1420;51.324;12.344;2023-07-02T13:48:54;180.22;;;170.68;;
2824;SDS011;1420;51.324;12.344;2023-07-02T13:51:22;153.26;;;144.66;;
2824;SDS011;1420;51.324;12.344;2023-07-02T13:53:49;157.52;;;148.22;;
2824;SDS011;1420;51.324;12.344;2023-07-02T13:56:16;147.68;;;139.14;;
2824;SDS011;1420;51.324;12.344;2023-07-02T13:58:46;139.38;;;131.00;;
2824;SDS011;1420;51.324;12.344;2023-07-02T14:01:27;143.66;;;135.40;;
2824;SDS011;1420;51.324;12.344;2023-07-02T14:03:54;145.38;;;137.00;;
2824;SDS011;1420;51.324;12.344;2023-07-02T14:06:22;154.66;;;145.98;;
2824;SDS011;1420;51.324;12.344;2023-07-02T14:08:50;181.82;;;171.58;;
2824;SDS011;1420;51.324;12.344;2023-07-02T14:11:17;159.56;;;150.76;;
2824;SDS011;1420;51.324;12.344;2023-07-02T14:13:44;153.20;;;144.88;;
2824;SDS011;1420;51.324;12.344;2023-07-02T14:16:11;162.38;;;152.90;;
2824;SDS011;1420;51.324;12.344;2023-07-02T14:18:38;137.08;;;128.44;;
2824;SDS011;1420;51.324;12.344;2023-07-02T14:21:06;153.82;;;144.54;;
2824;SDS011;1420;51.324;12.344;2023-07-02T14:23:34;149.90;;;141.36;;
2824;SDS011;1420;51.324;12.344;2023-07-02T14:26:01;164.42;;;155.40;;
2824;SDS011;1420;51.324;12.344;2023-07-02T14:28:29;151.40;;;142.56;;
2824;SDS011;1420;51.324;12.344;2023-07-02T14:30:57;147.92;;;139.20;;
2824;SDS011;1420;51.324;12.344;2023-07-02T14:33:25;135.06;;;126.74;;
2824;SDS011;1420;51.324;12.344;2023-07-02T14:35:52;139.62;;;131.26;;
2824;SDS011;1420;51.324;12.344;2023-07-02T14:38:19;120.58;;;112.92;;
2824;SDS011;1420;51.324;12.344;2023-07-02T14:40:48;121.94;;;114.06;;
2824;SDS011;1420;51.324;12.344;2023-07-02T14:43:15;133.52;;;125.68;;
2824;SDS011;1420;51.324;12.344;2023-07-02T14:45:44;118.10;;;110.32;;
2824;SDS011;1420;51.324;12.344;2023-07-02T14:48:10;125.50;;;117.46;;
2824;SDS011;1420;51.324;12.344;2023-07-02T14:50:41;130.62;;;122.60;;
2824;SDS011;1420;51.324;12.344;2023-07-02T14:53:04;122.80;;;115.02;;